Time;durP1;ratioP1;P1;durP2;ratioP2;P2;SDS_P1;SDS_P2;PMS_P1;PMS_P2;Temp;Humidity;BMP_temperature;BMP_pressure;BME280_temperature;BME280_humidity;BME280_pressure;Samples;Min_cycle;Max_cycle;Signal;HPM_P1;HPM_P2
2023/12/04 00:01:55;;;;;;;5.90;4.00;;;;;;;;;;5053896;28;41572;-72
2023/12/04 00:04:23;;;;;;;6.53;3.92;;;;;;;;;;5067740;28;41955;-72
2023/12/04 00:06:53;;;;;;;4.30;3.70;;;;;;;;;;5066606;28;39910;-72
2023/12/04 00:09:23;;;;;;;4.70;4.18;;;;;;;;;;5066645;28;41513;-73
2023/12/04 00:11:52;;;;;;;5.95;4.32;;;;;;;;;;5065753;28;41947;-72
2023/12/04 00:14:20;;;;;;;5.13;4.13;;;;;;;;;;5068902;28;39753;-73
2023/12/04 00:16:48;;;;;;;5.40;4.70;;;;;;;;;;5068222;28;40610;-72
2023/12/04 00:19:16;;;;;;;6.47;4.38;;;;;;;;;;5064301;28;40063;-72
2023/12/04 00:21:44;;;;;;;5.15;3.83;;;;;;;;;;5060761;28;42214;-72
2023/12/04 00:24:13;;;;;;;5.13;4.22;;;;;;;;;;5053552;28;42784;-71
2023/12/04 00:26:41;;;;;;;4.70;3.97;;;;;;;;;;5068790;28;41429;-72
2023/12/04 00:29:09;;;;;;;4.65;4.03;;;;;;;;;;5069065;28;41661;-73
2023/12/04 00:31:37;;;;;;;7.10;4.35;;;;;;;;;;5069181;28;42664;-72
2023/12/04 00:34:05;;;;;;;4.78;4.00;;;;;;;;;;5068352;28;40192;-72
2023/12/04 00:36:33;;;;;;;5.47;3.97;;;;;;;;;;5066564;28;41597;-72
2023/12/04 00:39:01;;;;;;;7.32;3.80;;;;;;;;;;5068856;28;41241;-72
2023/12/04 00:41:30;;;;;;;5.72;4.38;;;;;;;;;;5068629;28;41815;-72
2023/12/04 00:43:58;;;;;;;6.32;3.65;;;;;;;;;;5068158;28;42087;-73
2023/12/04 00:46:26;;;;;;;4.38;3.95;;;;;;;;;;5049869;28;38948;-72
2023/12/04 00:48:54;;;;;;;4.75;4.18;;;;;;;;;;5068329;28;42280;-72
2023/12/04 00:51:22;;;;;;;5.15;4.25;;;;;;;;;;5054315;28;41893;-72
2023/12/04 00:53:50;;;;;;;4.03;3.40;;;;;;;;;;5060169;28;39410;-72
2023/12/04 00:56:20;;;;;;;4.97;4.10;;;;;;;;;;5062252;28;41564;-72
2023/12/04 00:58:49;;;;;;;5.18;3.80;;;;;;;;;;5069390;28;40947;-72
2023/12/04 01:01:17;;;;;;;4.78;4.00;;;;;;;;;;5068907;28;41600;-73
2023/12/04 01:03:46;;;;;;;4.70;3.85;;;;;;;;;;5068615;28;41582;-72
2023/12/04 01:06:21;;;;;;;4.50;4.07;;;;;;;;;;5069080;28;40542;-72
2023/12/04 01:08:49;;;;;;;4.50;3.97;;;;;;;;;;5064726;28;41655;-72
2023/12/04 01:11:19;;;;;;;5.10;4.35;;;;;;;;;;5059461;28;43082;-73
2023/12/04 01:13:47;;;;;;;4.38;3.92;;;;;;;;;;5053755;28;39982;-72
2023/12/04 01:16:16;;;;;;;4.78;3.92;;;;;;;;;;5068436;28;41708;-72
2023/12/04 01:18:44;;;;;;;6.30;4.22;;;;;;;;;;5068410;28;42131;-72
2023/12/04 01:21:12;;;;;;;4.93;4.20;;;;;;;;;;5068851;28;42207;-72
2023/12/04 01:23:40;;;;;;;5.63;4.35;;;;;;;;;;5067743;28;42281;-72
2023/12/04 01:26:08;;;;;;;5.57;4.32;;;;;;;;;;5068728;28;40269;-72
2023/12/04 01:28:36;;;;;;;4.30;3.90;;;;;;;;;;5068927;28;42073;-72
2023/12/04 01:31:04;;;;;;;5.95;4.25;;;;;;;;;;5067441;28;42045;-72
2023/12/04 01:33:33;;;;;;;4.60;3.92;;;;;;;;;;5068509;28;39810;-73
2023/12/04 01:36:02;;;;;;;5.50;4.50;;;;;;;;;;5065712;28;41751;-72
2023/12/04 01:38:30;;;;;;;5.05;4.03;;;;;;;;;;5058325;28;42154;-72
2023/12/04 01:40:58;;;;;;;4.85;4.00;;;;;;;;;;5061519;28;40262;-72
2023/12/04 01:43:28;;;;;;;4.93;3.90;;;;;;;;;;5065764;28;42758;-72
2023/12/04 01:45:56;;;;;;;5.43;4.03;;;;;;;;;;5064047;28;40843;-72
2023/12/04 01:48:24;;;;;;;5.40;3.83;;;;;;;;;;5067798;28;41245;-72
2023/12/04 01:50:53;;;;;;;6.07;4.22;;;;;;;;;;5064853;28;42070;-72
2023/12/04 01:53:21;;;;;;;6.20;4.75;;;;;;;;;;5062268;28;39680;-72
2023/12/04 01:55:49;;;;;;;4.90;4.20;;;;;;;;;;5067078;28;42240;-72
2023/12/04 01:58:17;;;;;;;4.63;3.90;;;;;;;;;;5067309;28;41627;-72
2023/12/04 02:00:47;;;;;;;5.00;3.72;;;;;;;;;;5054892;28;40734;-72
2023/12/04 02:03:15;;;;;;;4.57;4.00;;;;;;;;;;5068788;28;41817;-72
2023/12/04 02:05:44;;;;;;;6.25;4.22;;;;;;;;;;5066922;28;40495;-72
2023/12/04 02:08:14;;;;;;;4.43;3.90;;;;;;;;;;5056688;28;42568;-72
2023/12/04 02:10:42;;;;;;;4.18;3.60;;;;;;;;;;5061752;28;42095;-72
2023/12/04 02:13:10;;;;;;;5.07;4.10;;;;;;;;;;5057434;28;40546;-72
2023/12/04 02:15:38;;;;;;;4.40;3.70;;;;;;;;;;5067617;28;41582;-72
2023/12/04 02:18:06;;;;;;;5.85;3.67;;;;;;;;;;5068240;28;42894;-72
2023/12/04 02:20:34;;;;;;;4.90;4.40;;;;;;;;;;5051741;28;38836;-72
2023/12/04 02:23:02;;;;;;;4.53;4.10;;;;;;;;;;5062856;28;40879;-72
2023/12/04 02:25:31;;;;;;;4.53;3.40;;;;;;;;;;5061565;28;42816;-72
2023/12/04 02:28:06;;;;;;;4.32;3.72;;;;;;;;;;5063791;28;41512;-72
2023/12/04 02:30:36;;;;;;;4.85;3.65;;;;;;;;;;5067872;28;41459;-72
2023/12/04 02:33:04;;;;;;;5.00;3.90;;;;;;;;;;5067033;28;40831;-72
2023/12/04 02:35:33;;;;;;;4.35;3.80;;;;;;;;;;5068189;28;40971;-72
2023/12/04 02:38:01;;;;;;;4.25;3.85;;;;;;;;;;5066638;28;41898;-72
2023/12/04 02:40:29;;;;;;;5.30;4.00;;;;;;;;;;5061284;28;40917;-71
2023/12/04 02:42:58;;;;;;;4.47;4.00;;;;;;;;;;5067834;28;42521;-72
2023/12/04 02:45:26;;;;;;;5.13;4.15;;;;;;;;;;5057036;28;41811;-73
2023/12/04 02:47:54;;;;;;;4.05;3.45;;;;;;;;;;5067276;28;40494;-72
2023/12/04 02:50:22;;;;;;;4.80;3.90;;;;;;;;;;5065532;28;43695;-72
2023/12/04 02:52:50;;;;;;;4.68;4.10;;;;;;;;;;5048834;28;40229;-72
2023/12/04 02:55:18;;;;;;;4.57;3.75;;;;;;;;;;5065527;28;42514;-72
2023/12/04 02:57:46;;;;;;;4.38;3.67;;;;;;;;;;5065261;28;42689;-72
2023/12/04 03:00:15;;;;;;;4.20;3.70;;;;;;;;;;5065123;28;40306;-72
2023/12/04 03:02:43;;;;;;;5.30;4.13;;;;;;;;;;5066495;28;40749;-72
2023/12/04 03:05:11;;;;;;;3.92;3.28;;;;;;;;;;5066672;28;42097;-72
2023/12/04 03:07:39;;;;;;;4.35;3.75;;;;;;;;;;5066604;28;39765;-73
2023/12/04 03:10:08;;;;;;;5.78;3.85;;;;;;;;;;5064912;28;41346;-72
2023/12/04 03:12:36;;;;;;;4.45;3.92;;;;;;;;;;5060989;28;41346;-72
2023/12/04 03:15:05;;;;;;;4.93;3.65;;;;;;;;;;5065270;28;41482;-72
2023/12/04 03:17:34;;;;;;;4.70;3.63;;;;;;;;;;5067432;28;42357;-73
2023/12/04 03:20:03;;;;;;;4.55;3.60;;;;;;;;;;5064615;28;41541;-72
2023/12/04 03:22:31;;;;;;;3.60;3.30;;;;;;;;;;5063650;28;41569;-72
2023/12/04 03:24:59;;;;;;;5.07;3.35;;;;;;;;;;5066644;28;41657;-72
2023/12/04 03:27:27;;;;;;;4.20;3.53;;;;;;;;;;5064966;28;40516;-72
2023/12/04 03:29:55;;;;;;;4.55;3.85;;;;;;;;;;5069948;28;42422;-72
2023/12/04 03:32:23;;;;;;;4.35;3.70;;;;;;;;;;5065346;28;40872;-73
2023/12/04 03:34:52;;;;;;;3.92;3.20;;;;;;;;;;5062385;28;41641;-72
2023/12/04 03:37:20;;;;;;;3.90;3.50;;;;;;;;;;5064818;28;41916;-72
2023/12/04 03:39:48;;;;;;;4.55;3.35;;;;;;;;;;5070654;28;40605;-72
2023/12/04 03:42:16;;;;;;;4.20;3.75;;;;;;;;;;5070406;28;41210;-72
2023/12/04 03:44:44;;;;;;;3.92;3.53;;;;;;;;;;5069664;28;42212;-72
2023/12/04 03:47:12;;;;;;;4.10;3.35;;;;;;;;;;5069890;28;39864;-72
2023/12/04 03:49:40;;;;;;;3.95;3.55;;;;;;;;;;5070037;28;41120;-72
2023/12/04 03:52:09;;;;;;;5.32;3.80;;;;;;;;;;5070718;28;42721;-72
2023/12/04 03:54:37;;;;;;;3.92;3.28;;;;;;;;;;5070766;28;42469;-72
2023/12/04 03:57:05;;;;;;;3.83;3.33;;;;;;;;;;5069741;28;41625;-72
2023/12/04 03:59:33;;;;;;;4.43;3.50;;;;;;;;;;5070132;28;40697;-72
2023/12/04 04:02:01;;;;;;;4.15;3.58;;;;;;;;;;5069950;28;41610;-72
2023/12/04 04:04:29;;;;;;;4.05;3.35;;;;;;;;;;5046812;28;40810;-72
2023/12/04 04:06:58;;;;;;;4.72;4.03;;;;;;;;;;5062746;28;38355;-73
2023/12/04 04:09:27;;;;;;;4.30;3.80;;;;;;;;;;5069547;28;41068;-73
2023/12/04 04:11:55;;;;;;;4.55;3.60;;;;;;;;;;5067730;28;42178;-72
2023/12/04 04:14:24;;;;;;;3.92;3.33;;;;;;;;;;5069527;28;40305;-72
2023/12/04 04:16:52;;;;;;;4.10;3.10;;;;;;;;;;5067358;28;42064;-72
2023/12/04 04:19:20;;;;;;;4.28;3.42;;;;;;;;;;5063218;28;41294;-72
2023/12/04 04:21:48;;;;;;;3.85;3.20;;;;;;;;;;5062277;28;42593;-72
2023/12/04 04:24:16;;;;;;;3.72;3.35;;;;;;;;;;5063876;28;42820;-72
2023/12/04 04:26:45;;;;;;;3.42;3.13;;;;;;;;;;5067224;28;40675;-73
2023/12/04 04:29:13;;;;;;;3.90;3.50;;;;;;;;;;5069083;28;41656;-72
2023/12/04 04:31:41;;;;;;;3.63;3.25;;;;;;;;;;5063987;28;42924;-72
2023/12/04 04:34:09;;;;;;;4.15;3.70;;;;;;;;;;5067422;28;41028;-72
2023/12/04 04:36:37;;;;;;;4.10;3.65;;;;;;;;;;5067373;28;41794;-72
2023/12/04 04:39:06;;;;;;;4.28;3.35;;;;;;;;;;5068757;28;41409;-72
2023/12/04 04:41:34;;;;;;;4.03;3.33;;;;;;;;;;5068032;28;40591;-72
2023/12/04 04:44:03;;;;;;;3.75;3.22;;;;;;;;;;5068629;28;42554;-72
2023/12/04 04:46:31;;;;;;;4.20;3.10;;;;;;;;;;5068049;28;40375;-72
2023/12/04 04:48:59;;;;;;;4.30;3.35;;;;;;;;;;5068665;28;41635;-72
2023/12/04 04:51:28;;;;;;;3.83;3.42;;;;;;;;;;5069071;28;42827;-72
2023/12/04 04:53:56;;;;;;;4.45;3.22;;;;;;;;;;5068511;28;41465;-72
2023/12/04 04:56:24;;;;;;;4.00;3.58;;;;;;;;;;5068432;28;41502;-72
2023/12/04 04:58:52;;;;;;;4.22;3.20;;;;;;;;;;5069392;28;42235;-77
2023/12/04 05:01:22;;;;;;;3.55;3.10;;;;;;;;;;5069210;28;41075;-75
2023/12/04 05:03:49;;;;;;;5.63;3.45;;;;;;;;;;5068655;28;42068;-75
2023/12/04 05:06:17;;;;;;;4.68;3.78;;;;;;;;;;5069233;28;41422;-75
2023/12/04 05:08:45;;;;;;;4.15;3.20;;;;;;;;;;5067790;28;41149;-75
2023/12/04 05:11:15;;;;;;;3.95;3.47;;;;;;;;;;5068686;28;42129;-75
2023/12/04 05:13:43;;;;;;;4.07;3.33;;;;;;;;;;5068734;28;40399;-75
2023/12/04 05:16:11;;;;;;;3.60;3.20;;;;;;;;;;5067921;28;41235;-75
2023/12/04 05:18:40;;;;;;;3.17;2.83;;;;;;;;;;5068925;28;42315;-75
2023/12/04 05:21:09;;;;;;;4.35;3.45;;;;;;;;;;5068950;28;40089;-75
2023/12/04 05:23:37;;;;;;;4.28;3.28;;;;;;;;;;5068676;28;41497;-75
2023/12/04 05:26:05;;;;;;;3.25;2.95;;;;;;;;;;5068204;28;39893;-75
2023/12/04 05:28:33;;;;;;;4.60;3.55;;;;;;;;;;5067330;28;41610;-75
2023/12/04 05:31:01;;;;;;;4.07;3.38;;;;;;;;;;5067849;28;42321;-75
2023/12/04 05:33:29;;;;;;;3.83;3.08;;;;;;;;;;5064143;28;40194;-75
2023/12/04 05:36:00;;;;;;;4.13;3.05;;;;;;;;;;5063836;28;41774;-75
2023/12/04 05:38:28;;;;;;;3.28;2.85;;;;;;;;;;5064522;28;43224;-75
2023/12/04 05:40:56;;;;;;;3.67;3.10;;;;;;;;;;5068542;28;40823;-75
2023/12/04 05:43:24;;;;;;;3.92;3.17;;;;;;;;;;5066309;28;42257;-75
2023/12/04 05:45:52;;;;;;;3.20;2.83;;;;;;;;;;5067575;28;40191;-75
2023/12/04 05:48:20;;;;;;;3.63;3.15;;;;;;;;;;5053346;28;42611;-75
2023/12/04 05:50:48;;;;;;;5.45;2.97;;;;;;;;;;5066972;28;41955;-76
2023/12/04 05:53:17;;;;;;;4.80;3.63;;;;;;;;;;5066916;28;40030;-75
2023/12/04 05:55:46;;;;;;;3.47;3.00;;;;;;;;;;5058359;28;42619;-75
2023/12/04 05:58:14;;;;;;;3.47;2.90;;;;;;;;;;5062619;28;42036;-75
2023/12/04 06:00:42;;;;;;;3.55;2.78;;;;;;;;;;5049259;28;37097;-75
2023/12/04 06:03:10;;;;;;;3.53;3.00;;;;;;;;;;5067484;28;41488;-76
2023/12/04 06:05:38;;;;;;;3.58;2.90;;;;;;;;;;5068087;28;39906;-75
2023/12/04 06:08:06;;;;;;;3.58;2.97;;;;;;;;;;5061183;28;42769;-75
2023/12/04 06:10:35;;;;;;;4.18;3.05;;;;;;;;;;5067282;28;42344;-75
2023/12/04 06:13:03;;;;;;;3.28;2.70;;;;;;;;;;5048575;28;40670;-75
2023/12/04 06:15:31;;;;;;;5.22;3.28;;;;;;;;;;5067649;28;41565;-75
2023/12/04 06:17:59;;;;;;;3.65;2.85;;;;;;;;;;5067360;28;42559;-75
2023/12/04 06:20:27;;;;;;;3.35;2.75;;;;;;;;;;5067681;28;40258;-75
2023/12/04 06:22:56;;;;;;;3.38;2.65;;;;;;;;;;5067655;28;42628;-75
2023/12/04 06:25:24;;;;;;;3.65;2.97;;;;;;;;;;5065672;28;42045;-75
2023/12/04 06:27:54;;;;;;;3.88;3.25;;;;;;;;;;5048611;28;41492;-75
2023/12/04 06:30:22;;;;;;;3.67;3.03;;;;;;;;;;5067200;28;43251;-75
2023/12/04 06:32:50;;;;;;;3.30;2.88;;;;;;;;;;5066528;28;40364;-75
2023/12/04 06:35:18;;;;;;;3.50;2.95;;;;;;;;;;5066319;28;41763;-75
2023/12/04 06:37:48;;;;;;;3.53;2.80;;;;;;;;;;5067745;28;43001;-75
2023/12/04 06:40:17;;;;;;;3.10;2.47;;;;;;;;;;5067051;28;41114;-75
2023/12/04 06:42:45;;;;;;;3.47;2.90;;;;;;;;;;5048649;28;40759;-75
2023/12/04 06:45:15;;;;;;;4.18;2.83;;;;;;;;;;5067061;28;41591;-75
2023/12/04 06:47:43;;;;;;;3.10;2.80;;;;;;;;;;5067100;28;40896;-75
2023/12/04 06:50:11;;;;;;;4.10;2.83;;;;;;;;;;5066937;28;41898;-75
2023/12/04 06:52:39;;;;;;;3.85;2.70;;;;;;;;;;5067393;28;40143;-74
2023/12/04 06:55:08;;;;;;;2.92;2.63;;;;;;;;;;5065519;28;41912;-75
2023/12/04 06:57:36;;;;;;;2.55;2.22;;;;;;;;;;5047807;28;41029;-75
2023/12/04 07:00:04;;;;;;;4.03;2.85;;;;;;;;;;5064208;28;41011;-75
2023/12/04 07:02:51;;;;;;;2.85;2.30;;;;;;;;;;5063472;28;41429;-75
2023/12/04 07:05:19;;;;;;;3.25;2.95;;;;;;;;;;5066826;28;42042;-75
2023/12/04 07:07:47;;;;;;;2.53;2.28;;;;;;;;;;5066178;28;40211;-75
2023/12/04 07:10:15;;;;;;;3.20;2.83;;;;;;;;;;5067725;28;41265;-75
2023/12/04 07:12:44;;;;;;;3.00;2.70;;;;;;;;;;5066557;28;40128;-75
2023/12/04 07:15:12;;;;;;;4.57;2.45;;;;;;;;;;5064758;28;42182;-75
2023/12/04 07:17:40;;;;;;;2.92;2.50;;;;;;;;;;5054605;28;42426;-75
2023/12/04 07:20:11;;;;;;;2.88;2.60;;;;;;;;;;5066755;28;40289;-75
2023/12/04 07:22:39;;;;;;;3.35;2.72;;;;;;;;;;5046344;28;42634;-75
2023/12/04 07:25:08;;;;;;;2.67;2.30;;;;;;;;;;5059539;28;43141;-75
2023/12/04 07:27:36;;;;;;;3.05;2.40;;;;;;;;;;5066406;28;41295;-75
2023/12/04 07:30:04;;;;;;;3.10;2.58;;;;;;;;;;5065696;28;41136;-75
2023/12/04 07:32:32;;;;;;;2.75;2.30;;;;;;;;;;5066077;28;32449;-75
2023/12/04 07:35:01;;;;;;;3.00;2.35;;;;;;;;;;5065321;28;41508;-75
2023/12/04 07:37:31;;;;;;;2.20;2.00;;;;;;;;;;5066301;28;42256;-75
2023/12/04 07:40:00;;;;;;;2.65;2.20;;;;;;;;;;5061916;28;40216;-75
2023/12/04 07:42:28;;;;;;;2.38;1.80;;;;;;;;;;5065829;28;41408;-75
2023/12/04 07:44:56;;;;;;;2.80;2.47;;;;;;;;;;5065929;28;41885;-75
2023/12/04 07:47:24;;;;;;;2.90;2.40;;;;;;;;;;5064599;28;40213;-75
2023/12/04 07:49:53;;;;;;;2.70;2.50;;;;;;;;;;5065189;28;41156;-75
2023/12/04 07:52:21;;;;;;;3.65;2.50;;;;;;;;;;5067111;28;42612;-76
2023/12/04 07:54:50;;;;;;;2.95;2.40;;;;;;;;;;5065255;28;41719;-75
2023/12/04 07:57:19;;;;;;;2.42;2.17;;;;;;;;;;5065592;28;42091;-75
2023/12/04 07:59:47;;;;;;;2.95;2.20;;;;;;;;;;5065909;28;40112;-75
2023/12/04 08:02:18;;;;;;;2.33;2.00;;;;;;;;;;5061824;28;42341;-75
2023/12/04 08:04:47;;;;;;;2.88;2.58;;;;;;;;;;5062460;28;42637;-74
2023/12/04 08:07:15;;;;;;;3.20;2.17;;;;;;;;;;5064760;28;42708;-75
2023/12/04 08:09:43;;;;;;;3.20;2.47;;;;;;;;;;5058174;28;42556;-75
2023/12/04 08:12:12;;;;;;;3.40;2.58;;;;;;;;;;5066415;28;41894;-75
2023/12/04 08:14:40;;;;;;;3.45;2.60;;;;;;;;;;5069058;28;40273;-75
2023/12/04 08:17:08;;;;;;;3.30;2.40;;;;;;;;;;5069334;28;41639;-76
2023/12/04 08:19:37;;;;;;;3.65;2.65;;;;;;;;;;5067420;28;41019;-79
2023/12/04 08:22:06;;;;;;;2.97;2.35;;;;;;;;;;5067251;28;41636;-74
2023/12/04 08:24:34;;;;;;;5.65;2.40;;;;;;;;;;5068184;28;42643;-74
2023/12/04 08:27:02;;;;;;;5.03;2.58;;;;;;;;;;5069718;28;40858;-74
2023/12/04 08:29:31;;;;;;;5.57;2.53;;;;;;;;;;5069567;28;41230;-73
2023/12/04 08:31:59;;;;;;;7.50;2.55;;;;;;;;;;5068871;28;41849;-73
2023/12/04 08:34:27;;;;;;;6.65;2.53;;;;;;;;;;5069054;28;40310;-76
2023/12/04 08:36:55;;;;;;;6.30;2.55;;;;;;;;;;5069961;28;42558;-70
2023/12/04 08:39:23;;;;;;;5.05;2.40;;;;;;;;;;5068490;28;40093;-69
2023/12/04 08:41:51;;;;;;;4.80;2.30;;;;;;;;;;5068186;28;41424;-70
2023/12/04 08:44:31;;;;;;;4.43;2.50;;;;;;;;;;5065268;28;41998;-71
2023/12/04 08:47:00;;;;;;;6.30;2.42;;;;;;;;;;5068543;28;41816;-70
2023/12/04 08:49:28;;;;;;;5.93;2.33;;;;;;;;;;5069380;28;41878;-71
2023/12/04 08:52:09;;;;;;;4.28;2.30;;;;;;;;;;5065760;28;42376;-70
2023/12/04 08:54:39;;;;;;;2.33;1.98;;;;;;;;;;5067961;28;40337;-71
2023/12/04 08:57:07;;;;;;;2.60;2.10;;;;;;;;;;5068408;28;42590;-72
2023/12/04 08:59:36;;;;;;;3.58;2.53;;;;;;;;;;5069232;28;41819;-76
2023/12/04 09:02:05;;;;;;;3.40;2.28;;;;;;;;;;5065649;28;41920;-77
2023/12/04 09:04:33;;;;;;;5.32;2.60;;;;;;;;;;5049958;28;41119;-72
2023/12/04 09:07:02;;;;;;;3.83;2.80;;;;;;;;;;5068279;28;42091;-72
2023/12/04 09:09:49;;;;;;;3.00;2.33;;;;;;;;;;5066150;28;42290;-74
2023/12/04 09:12:18;;;;;;;4.53;2.63;;;;;;;;;;5063197;28;42355;-72
2023/12/04 09:14:47;;;;;;;5.28;2.50;;;;;;;;;;5069285;28;40325;-72
2023/12/04 09:17:16;;;;;;;4.03;2.63;;;;;;;;;;5063485;28;42010;-74
2023/12/04 09:19:44;;;;;;;5.93;2.60;;;;;;;;;;5062133;28;42442;-74
2023/12/04 09:22:12;;;;;;;6.47;2.65;;;;;;;;;;5062520;28;40038;-72
2023/12/04 09:24:48;;;;;;;3.08;2.50;;;;;;;;;;5065799;28;42216;-73
2023/12/04 09:27:16;;;;;;;3.17;2.40;;;;;;;;;;5063117;28;40380;-73
2023/12/04 09:29:44;;;;;;;8.93;2.70;;;;;;;;;;5049730;28;39810;-78
2023/12/04 09:32:14;;;;;;;4.60;2.83;;;;;;;;;;5067897;28;41761;-73
2023/12/04 09:34:42;;;;;;;4.30;2.85;;;;;;;;;;5067615;28;40512;-73
2023/12/04 09:37:10;;;;;;;3.78;2.70;;;;;;;;;;5068633;28;41634;-73
2023/12/04 09:39:40;;;;;;;4.43;2.28;;;;;;;;;;5065402;28;42470;-73
2023/12/04 09:42:08;;;;;;;5.22;2.45;;;;;;;;;;5068178;28;40756;-71
2023/12/04 09:44:37;;;;;;;5.68;2.50;;;;;;;;;;5067736;28;43691;-72
2023/12/04 09:47:05;;;;;;;2.50;2.28;;;;;;;;;;5063361;28;39863;-74
2023/12/04 09:49:35;;;;;;;4.43;2.55;;;;;;;;;;5065138;28;42347;-74
2023/12/04 09:52:03;;;;;;;2.75;2.47;;;;;;;;;;5057819;28;41610;-76
2023/12/04 09:54:31;;;;;;;3.55;2.70;;;;;;;;;;5051238;28;40922;-76
2023/12/04 09:56:59;;;;;;;2.40;2.20;;;;;;;;;;5065813;28;43092;-74
2023/12/04 09:59:27;;;;;;;7.03;2.20;;;;;;;;;;5056102;28;43250;-76
2023/12/04 10:01:55;;;;;;;4.65;2.90;;;;;;;;;;5061997;28;40966;-72
2023/12/04 10:04:23;;;;;;;8.70;2.45;;;;;;;;;;5057332;28;41195;-71
2023/12/04 10:06:52;;;;;;;5.90;2.65;;;;;;;;;;5067109;28;40393;-72
2023/12/04 10:09:22;;;;;;;4.05;2.30;;;;;;;;;;5057541;28;41882;-71
2023/12/04 10:11:51;;;;;;;3.92;2.55;;;;;;;;;;5062296;28;42352;-76
2023/12/04 10:14:19;;;;;;;5.75;2.63;;;;;;;;;;5066652;28;40069;-76
2023/12/04 10:16:47;;;;;;;2.95;2.60;;;;;;;;;;5056993;28;41148;-77
2023/12/04 10:19:16;;;;;;;3.92;2.22;;;;;;;;;;5065433;28;42161;-73
2023/12/04 10:21:44;;;;;;;6.72;2.35;;;;;;;;;;5064411;28;41167;-76
2023/12/04 10:24:14;;;;;;;3.28;2.38;;;;;;;;;;5063361;28;41771;-76
2023/12/04 10:26:50;;;;;;;5.20;2.70;;;;;;;;;;5046780;28;40455;-76
2023/12/04 10:29:18;;;;;;;4.82;2.92;;;;;;;;;;5043342;28;41235;-77
2023/12/04 10:31:47;;;;;;;4.40;2.67;;;;;;;;;;5056756;28;42422;-78
2023/12/04 10:34:15;;;;;;;8.70;3.05;;;;;;;;;;5058325;28;40113;-79
2023/12/04 10:36:45;;;;;;;5.75;3.03;;;;;;;;;;5063653;28;43161;-76
2023/12/04 10:39:15;;;;;;;5.22;2.50;;;;;;;;;;5063038;28;41767;-72
2023/12/04 10:41:44;;;;;;;3.30;2.70;;;;;;;;;;5066784;28;39679;-71
2023/12/04 10:44:17;;;;;;;6.32;2.40;;;;;;;;;;5065870;28;40956;-70
2023/12/04 10:46:45;;;;;;;5.63;2.60;;;;;;;;;;5051125;28;40484;-72
2023/12/04 10:49:14;;;;;;;6.72;2.67;;;;;;;;;;5065100;28;40784;-77
2023/12/04 10:51:42;;;;;;;6.57;2.75;;;;;;;;;;5047956;28;41735;-73
2023/12/04 10:54:12;;;;;;;3.90;2.60;;;;;;;;;;5065187;28;40347;-72
2023/12/04 10:56:44;;;;;;;7.28;2.38;;;;;;;;;;5058033;28;20388;-74
2023/12/04 10:59:12;;;;;;;6.68;2.65;;;;;;;;;;5056935;28;42049;-71
2023/12/04 11:01:40;;;;;;;4.47;2.30;;;;;;;;;;5065543;28;38243;-75
2023/12/04 11:04:09;;;;;;;5.38;2.85;;;;;;;;;;5067038;28;42013;-74
2023/12/04 11:06:37;;;;;;;4.30;2.75;;;;;;;;;;5065775;28;42827;-75
2023/12/04 11:09:06;;;;;;;7.88;3.03;;;;;;;;;;5063987;28;41467;-75
2023/12/04 11:11:35;;;;;;;8.63;2.92;;;;;;;;;;5065697;28;42789;-75
2023/12/04 11:14:05;;;;;;;4.20;3.03;;;;;;;;;;5065093;28;39789;-74
2023/12/04 11:16:35;;;;;;;3.90;2.60;;;;;;;;;;5063037;28;43171;-74
2023/12/04 11:19:05;;;;;;;3.78;2.50;;;;;;;;;;5045845;28;40305;-74
2023/12/04 11:21:33;;;;;;;5.57;2.20;;;;;;;;;;5066135;28;38895;-74
2023/12/04 11:24:01;;;;;;;7.20;2.92;;;;;;;;;;5064412;28;41765;-77
2023/12/04 11:26:29;;;;;;;4.00;3.03;;;;;;;;;;5065221;28;40958;-73
2023/12/04 11:28:57;;;;;;;4.70;2.55;;;;;;;;;;5065486;28;39413;-73
2023/12/04 11:31:26;;;;;;;8.07;2.70;;;;;;;;;;5065548;28;41590;-71
2023/12/04 11:33:54;;;;;;;5.88;2.78;;;;;;;;;;5064116;28;42011;-73
2023/12/04 11:36:23;;;;;;;4.43;2.75;;;;;;;;;;5064208;28;41709;-75
2023/12/04 11:38:51;;;;;;;5.78;2.72;;;;;;;;;;5064788;28;42104;-71
2023/12/04 11:41:19;;;;;;;6.93;2.70;;;;;;;;;;5066443;28;40177;-75
2023/12/04 11:43:53;;;;;;;4.93;2.63;;;;;;;;;;5062536;28;42519;-75
2023/12/04 11:46:22;;;;;;;5.35;2.92;;;;;;;;;;5066945;28;43135;-73
2023/12/04 11:48:53;;;;;;;8.55;2.60;;;;;;;;;;5068343;28;39899;-74
2023/12/04 11:51:39;;;;;;;5.38;2.45;;;;;;;;;;5069495;28;40954;-73
2023/12/04 11:54:08;;;;;;;6.05;2.53;;;;;;;;;;5067249;28;41581;-78
2023/12/04 11:56:36;;;;;;;6.07;2.88;;;;;;;;;;5053525;28;41406;-72
2023/12/04 11:59:04;;;;;;;6.57;2.53;;;;;;;;;;5069688;28;41950;-76
2023/12/04 12:01:34;;;;;;;18.48;3.30;;;;;;;;;;5068269;28;41049;-73
2023/12/04 12:04:03;;;;;;;4.40;2.75;;;;;;;;;;5068771;28;41524;-72
2023/12/04 12:06:32;;;;;;;18.70;3.92;;;;;;;;;;5056580;28;42189;-72
2023/12/04 12:09:00;;;;;;;9.60;3.83;;;;;;;;;;5053159;28;40135;-73
2023/12/04 12:11:28;;;;;;;7.72;3.42;;;;;;;;;;5057795;28;41695;-73
2023/12/04 12:13:56;;;;;;;7.53;3.78;;;;;;;;;;5064404;28;42095;-73
2023/12/04 12:16:24;;;;;;;13.20;3.72;;;;;;;;;;5070176;28;40299;-73
2023/12/04 12:18:52;;;;;;;8.77;3.83;;;;;;;;;;5066343;28;42102;-71
2023/12/04 12:21:21;;;;;;;12.40;3.72;;;;;;;;;;5065885;28;40361;-73
2023/12/04 12:23:49;;;;;;;14.48;4.28;;;;;;;;;;5052357;28;41724;-72
2023/12/04 12:26:17;;;;;;;13.60;4.97;;;;;;;;;;5066693;28;41330;-72
2023/12/04 12:28:46;;;;;;;16.00;4.53;;;;;;;;;;5068496;28;40164;-72
2023/12/04 12:31:14;;;;;;;10.50;4.07;;;;;;;;;;5067984;28;41522;-72
2023/12/04 12:33:42;;;;;;;11.95;4.38;;;;;;;;;;5068801;28;43127;-72
2023/12/04 12:36:11;;;;;;;10.05;4.10;;;;;;;;;;5068225;28;41120;-72
2023/12/04 12:38:40;;;;;;;10.25;4.25;;;;;;;;;;5068946;28;40608;-72
2023/12/04 12:41:10;;;;;;;7.78;3.97;;;;;;;;;;5047694;28;38956;-72
2023/12/04 12:43:38;;;;;;;15.95;4.22;;;;;;;;;;5064735;28;42488;-72
2023/12/04 12:46:06;;;;;;;12.00;4.10;;;;;;;;;;5064672;28;42093;-72
2023/12/04 12:48:34;;;;;;;13.38;4.57;;;;;;;;;;5064951;28;39535;-72
2023/12/04 12:51:03;;;;;;;12.88;4.22;;;;;;;;;;5065827;28;41808;-72
2023/12/04 12:53:32;;;;;;;10.43;4.30;;;;;;;;;;5066714;28;42853;-70
2023/12/04 12:56:02;;;;;;;13.23;3.80;;;;;;;;;;5067219;28;40341;-72
2023/12/04 12:58:30;;;;;;;17.38;5.05;;;;;;;;;;5065617;28;41355;-70
2023/12/04 13:00:58;;;;;;;14.48;4.18;;;;;;;;;;5068717;28;42750;-69
2023/12/04 13:03:26;;;;;;;12.18;4.13;;;;;;;;;;5066245;28;41484;-70
2023/12/04 13:05:55;;;;;;;9.02;4.15;;;;;;;;;;5066421;28;41856;-70
2023/12/04 13:08:23;;;;;;;10.85;4.55;;;;;;;;;;5066673;28;41196;-75
2023/12/04 13:10:52;;;;;;;12.43;4.53;;;;;;;;;;5068254;28;42220;-75
2023/12/04 13:13:21;;;;;;;14.00;4.43;;;;;;;;;;5067251;28;43746;-74
2023/12/04 13:15:50;;;;;;;12.98;3.75;;;;;;;;;;5065694;28;41005;-75
2023/12/04 13:18:18;;;;;;;11.80;3.47;;;;;;;;;;5066377;28;41533;-73
2023/12/04 13:20:46;;;;;;;12.43;4.13;;;;;;;;;;5065228;28;42031;-72
2023/12/04 13:23:14;;;;;;;13.00;3.10;;;;;;;;;;5067480;28;40030;-72
2023/12/04 13:25:43;;;;;;;11.40;3.53;;;;;;;;;;5065866;28;42012;-72
2023/12/04 13:28:13;;;;;;;10.55;3.65;;;;;;;;;;5066708;28;40384;-72
2023/12/04 13:30:55;;;;;;;7.57;3.35;;;;;;;;;;5064893;28;41402;-72
2023/12/04 13:33:24;;;;;;;9.27;4.18;;;;;;;;;;5066972;28;42040;-71
2023/12/04 13:35:53;;;;;;;10.17;3.90;;;;;;;;;;5063412;28;42918;-73
2023/12/04 13:38:21;;;;;;;10.50;3.92;;;;;;;;;;5077535;28;41198;-75
2023/12/04 13:41:08;;;;;;;7.57;3.58;;;;;;;;;;5072954;28;41408;-77
2023/12/04 13:43:50;;;;;;;9.20;3.30;;;;;;;;;;5066335;28;40575;-75
2023/12/04 13:46:19;;;;;;;11.38;3.97;;;;;;;;;;5067460;28;42279;-75
2023/12/04 13:48:47;;;;;;;9.65;3.60;;;;;;;;;;5047748;28;38879;-73
2023/12/04 13:51:15;;;;;;;8.27;3.63;;;;;;;;;;5068258;28;41647;-75
2023/12/04 13:53:45;;;;;;;13.52;3.58;;;;;;;;;;5066428;28;43117;-75
2023/12/04 13:56:25;;;;;;;11.25;3.72;;;;;;;;;;5070284;28;40582;-76
2023/12/04 13:58:56;;;;;;;12.70;3.70;;;;;;;;;;5063473;28;41378;-76
2023/12/04 14:01:28;;;;;;;11.55;3.63;;;;;;;;;;5060086;28;42106;-76
2023/12/04 14:04:01;;;;;;;13.48;3.45;;;;;;;;;;5064507;28;40131;-76
2023/12/04 14:06:29;;;;;;;9.95;3.80;;;;;;;;;;5057489;28;41534;-75
2023/12/04 14:08:58;;;;;;;11.73;3.58;;;;;;;;;;5066984;28;39930;-75
2023/12/04 14:11:26;;;;;;;10.07;2.88;;;;;;;;;;5054460;28;41656;-77
2023/12/04 14:13:55;;;;;;;10.25;3.60;;;;;;;;;;5066781;28;42076;-78
2023/12/04 14:16:22;;;;;;;11.45;3.10;;;;;;;;;;5067370;28;40300;-78
2023/12/04 14:18:52;;;;;;;8.32;3.53;;;;;;;;;;5053773;28;41990;-75
2023/12/04 14:21:20;;;;;;;19.60;3.83;;;;;;;;;;5068259;28;41981;-75
2023/12/04 14:23:47;;;;;;;12.88;3.80;;;;;;;;;;5073715;28;41337;-74
2023/12/04 14:26:15;;;;;;;6.88;3.63;;;;;;;;;;5076168;28;41536;-75
2023/12/04 14:28:43;;;;;;;18.08;4.22;;;;;;;;;;5048687;28;41555;-77
2023/12/04 14:31:11;;;;;;;11.13;4.03;;;;;;;;;;5066834;28;42601;-76
2023/12/04 14:33:39;;;;;;;7.18;2.78;;;;;;;;;;5059755;28;40060;-77
2023/12/04 14:36:13;;;;;;;6.93;2.90;;;;;;;;;;5064464;28;40959;-75
2023/12/04 14:38:41;;;;;;;7.63;3.65;;;;;;;;;;5059496;28;42452;-76
2023/12/04 14:41:10;;;;;;;8.02;3.08;;;;;;;;;;5067669;28;43078;-75
2023/12/04 14:43:38;;;;;;;4.65;3.13;;;;;;;;;;5047712;28;38613;-76
2023/12/04 14:46:08;;;;;;;15.75;2.95;;;;;;;;;;5066584;28;41667;-77
2023/12/04 14:48:37;;;;;;;8.07;3.40;;;;;;;;;;5051499;28;41577;-75
2023/12/04 14:51:06;;;;;;;8.95;3.80;;;;;;;;;;5067078;28;40340;-79